createdAt,value
2019-03-17T00:02:10.895Z,78.02
2019-03-17T00:04:40.531Z,78.09
2019-03-17T00:07:10.342Z,77.52
2019-03-17T00:09:40.170Z,77.20
2019-03-17T00:12:09.879Z,78.36
2019-03-17T00:14:39.782Z,77.37
2019-03-17T00:17:09.996Z,78.14
2019-03-17T00:19:39.779Z,77.05
2019-03-17T00:22:09.718Z,77.26
2019-03-17T00:24:39.743Z,76.88
2019-03-17T00:27:09.371Z,76.88
2019-03-17T00:29:39.104Z,76.92
2019-03-17T00:32:09.017Z,76.92
2019-03-17T00:34:44.148Z,76.17
2019-03-17T00:37:10.947Z,76.17
2019-03-17T00:39:40.810Z,76.96
2019-03-17T00:42:10.831Z,76.34
2019-03-17T00:44:40.540Z,76.27
2019-03-17T00:47:10.902Z,76.27
2019-03-17T00:49:40.996Z,76.34
2019-03-17T00:52:11.204Z,76.17
2019-03-17T00:54:41.252Z,76.17
2019-03-17T00:57:10.967Z,75.53
2019-03-17T00:59:41.200Z,75.28
2019-03-17T01:02:11.102Z,75.28
2019-03-17T01:04:40.933Z,76.13
2019-03-17T01:07:10.878Z,76.13
2019-03-17T01:09:41.046Z,75.66
2019-03-17T01:12:10.852Z,76.11
2019-03-17T01:14:41.123Z,76.16
2019-03-17T01:17:10.934Z,75.60
2019-03-17T01:19:40.635Z,75.40
2019-03-17T01:22:10.375Z,75.40
2019-03-17T01:24:40.325Z,76.09
2019-03-17T01:27:10.413Z,75.79
2019-03-17T01:29:39.978Z,75.00
2019-03-17T01:32:09.528Z,75.16
2019-03-17T01:34:39.293Z,75.16
2019-03-17T01:37:08.578Z,74.94
2019-03-17T01:39:38.246Z,74.94
2019-03-17T01:42:08.175Z,74.79
2019-03-17T01:44:37.890Z,74.27
2019-03-17T01:47:07.546Z,74.54
2019-03-17T01:49:37.695Z,74.54
2019-03-17T01:52:07.517Z,74.96
2019-03-17T01:54:37.513Z,75.05
2019-03-17T01:57:07.801Z,74.59
2019-03-17T01:59:37.520Z,74.59
2019-03-17T02:02:08.098Z,74.63
2019-03-17T02:04:38.071Z,74.13
2019-03-17T02:07:07.845Z,74.50
2019-03-17T02:09:37.681Z,74.50
2019-03-17T02:12:08.144Z,74.56
2019-03-17T02:14:41.037Z,74.33
2019-03-17T02:17:10.608Z,74.60
2019-03-17T02:19:40.608Z,74.97
2019-03-17T02:22:10.641Z,74.10
2019-03-17T02:24:40.474Z,74.10
2019-03-17T02:27:10.405Z,73.76
2019-03-17T02:29:40.000Z,74.28
2019-03-17T02:32:10.395Z,74.64
2019-03-17T02:34:40.125Z,73.95
2019-03-17T02:37:09.889Z,73.73
2019-03-17T02:39:40.151Z,73.77
2019-03-17T02:42:09.977Z,73.77
2019-03-17T02:44:39.884Z,73.41
2019-03-17T02:47:09.993Z,73.41
2019-03-17T02:49:40.726Z,74.04
2019-03-17T02:52:10.753Z,73.91
2019-03-17T02:54:41.213Z,74.10
2019-03-17T02:57:11.015Z,74.00
2019-03-17T02:59:40.668Z,74.00
2019-03-17T03:02:10.581Z,73.92
2019-03-17T03:04:40.373Z,73.59
2019-03-17T03:07:10.475Z,74.07
2019-03-17T03:09:40.091Z,74.07
2019-03-17T03:12:09.731Z,73.80
2019-03-17T03:14:41.318Z,73.87
2019-03-17T03:17:11.075Z,73.87
2019-03-17T03:19:41.013Z,74.13
2019-03-17T03:22:10.875Z,73.89
2019-03-17T03:24:40.746Z,73.89
2019-03-17T03:27:10.580Z,74.03
2019-03-17T03:29:41.130Z,74.03
2019-03-17T03:32:10.737Z,73.91
2019-03-17T03:34:40.883Z,73.79
2019-03-17T03:37:10.750Z,73.53
2019-03-17T03:39:40.352Z,74.35
2019-03-17T03:42:10.725Z,74.35
2019-03-17T03:44:40.536Z,74.13
2019-03-17T03:47:10.317Z,73.73
2019-03-17T03:49:40.025Z,74.46
2019-03-17T03:52:09.754Z,73.61
2019-03-17T03:54:39.491Z,73.61
2019-03-17T03:57:09.464Z,73.70
2019-03-17T03:59:39.268Z,73.70
2019-03-17T04:02:08.913Z,73.94
2019-03-17T04:04:38.668Z,73.94
2019-03-17T04:07:08.469Z,73.88
2019-03-17T04:09:38.195Z,73.65
2019-03-17T04:12:08.057Z,73.63
2019-03-17T04:14:38.073Z,74.48
2019-03-17T04:17:08.706Z,73.90
2019-03-17T04:19:38.703Z,73.90
2019-03-17T04:22:08.408Z,73.39
2019-03-17T04:24:38.149Z,74.33
2019-03-17T04:27:07.744Z,74.21
2019-03-17T04:29:37.541Z,74.21
2019-03-17T04:32:07.437Z,74.67
2019-03-17T04:34:37.076Z,75.59
2019-03-17T04:37:07.211Z,75.79
2019-03-17T04:39:36.964Z,76.50
2019-03-17T04:42:06.777Z,77.47
2019-03-17T04:44:36.897Z,77.47
2019-03-17T04:47:06.592Z,77.90
2019-03-17T04:49:36.417Z,79.24
2019-03-17T04:52:06.797Z,80.32
2019-03-17T04:54:36.604Z,79.70
2019-03-17T04:57:06.533Z,79.61
2019-03-17T04:59:36.259Z,79.61
2019-03-17T05:02:06.110Z,79.23
2019-03-17T05:04:36.311Z,78.42
2019-03-17T05:07:06.087Z,78.13
2019-03-17T05:09:36.034Z,76.81
2019-03-17T05:12:05.790Z,76.81
2019-03-17T05:14:35.925Z,77.41
2019-03-17T05:17:05.878Z,79.09
2019-03-17T05:19:36.124Z,79.09
2019-03-17T05:22:05.812Z,80.24
2019-03-17T05:24:35.479Z,81.21
2019-03-17T05:27:05.748Z,81.86
2019-03-17T05:29:35.720Z,82.65
2019-03-17T05:32:05.418Z,84.10
2019-03-17T05:34:36.071Z,84.75
2019-03-17T05:37:06.929Z,84.75
2019-03-17T05:39:36.884Z,86.59
2019-03-17T05:42:07.068Z,86.86
2019-03-17T05:44:36.739Z,86.86
2019-03-17T05:47:06.400Z,87.35
2019-03-17T05:49:35.918Z,87.28
2019-03-17T05:52:05.843Z,87.10
2019-03-17T05:54:36.313Z,87.10
2019-03-17T05:57:05.986Z,86.75
2019-03-17T05:59:35.916Z,87.69
2019-03-17T06:02:05.696Z,87.64
2019-03-17T06:04:35.643Z,87.95
2019-03-17T06:07:17.722Z,87.95
2019-03-17T06:09:36.887Z,88.17
2019-03-17T06:12:06.522Z,87.94
2019-03-17T06:14:37.335Z,87.94
2019-03-17T06:17:07.277Z,88.12
2019-03-17T06:19:36.980Z,88.67
2019-03-17T06:22:06.697Z,87.72
2019-03-17T06:24:36.451Z,88.31
2019-03-17T06:27:06.202Z,88.90
2019-03-17T06:29:36.202Z,88.84
2019-03-17T06:32:06.141Z,88.84
2019-03-17T06:34:36.010Z,88.62
2019-03-17T06:37:05.867Z,88.87
2019-03-17T06:39:36.024Z,89.15
2019-03-17T06:42:05.732Z,89.58
2019-03-17T06:44:35.580Z,89.58
2019-03-17T06:47:05.946Z,89.61
2019-03-17T06:49:36.060Z,89.61
2019-03-17T06:52:05.784Z,89.54
2019-03-17T06:54:36.046Z,90.29
2019-03-17T06:57:05.789Z,90.00
2019-03-17T06:59:35.453Z,90.00
2019-03-17T07:02:05.060Z,89.98
2019-03-17T07:04:34.883Z,89.98
2019-03-17T07:07:04.601Z,90.05
2019-03-17T07:09:35.076Z,89.32
2019-03-17T07:12:05.117Z,89.32
2019-03-17T07:14:36.242Z,90.57
2019-03-17T07:17:05.901Z,90.08
2019-03-17T07:19:35.928Z,90.07
2019-03-17T07:22:05.520Z,89.54
2019-03-17T07:24:35.214Z,89.19
2019-03-17T07:27:05.552Z,89.19
2019-03-17T07:29:35.382Z,89.55
2019-03-17T07:32:05.193Z,89.97
2019-03-17T07:34:34.803Z,90.13
2019-03-17T07:37:04.500Z,90.44
2019-03-17T07:39:34.799Z,90.03
2019-03-17T07:42:04.633Z,89.62
2019-03-17T07:44:34.437Z,89.62
2019-03-17T07:47:04.413Z,90.62
2019-03-17T07:49:34.686Z,90.62
2019-03-17T07:52:04.339Z,89.46
2019-03-17T07:54:35.173Z,90.00
2019-03-17T07:57:04.960Z,90.21
2019-03-17T07:59:34.793Z,89.73
2019-03-17T08:02:04.430Z,90.13
2019-03-17T08:04:42.543Z,90.22
2019-03-17T08:07:06.090Z,90.14
2019-03-17T08:09:36.103Z,90.27
2019-03-17T08:12:05.676Z,88.37
2019-03-17T08:14:35.711Z,87.57
2019-03-17T08:17:05.511Z,87.67
2019-03-17T08:19:36.647Z,88.78
2019-03-17T08:22:06.329Z,87.87
2019-03-17T08:24:36.141Z,87.87
2019-03-17T08:27:05.875Z,88.27
2019-03-17T08:29:36.199Z,88.39
2019-03-17T08:32:05.862Z,88.39
2019-03-17T08:34:37.618Z,88.61
2019-03-17T08:37:07.399Z,87.68
2019-03-17T08:39:37.647Z,87.68
2019-03-17T08:42:07.629Z,87.07
2019-03-17T08:44:37.590Z,87.07
2019-03-17T08:47:08.049Z,87.62
2019-03-17T08:49:38.411Z,88.01
2019-03-17T08:52:08.105Z,88.58
2019-03-17T08:54:38.358Z,89.43
2019-03-17T08:57:08.395Z,89.43
2019-03-17T08:59:38.199Z,89.41
2019-03-17T09:02:08.003Z,89.32
2019-03-17T09:04:37.826Z,89.32
2019-03-17T09:07:07.713Z,89.58
2019-03-17T09:09:37.505Z,88.61
2019-03-17T09:12:08.030Z,88.02
2019-03-17T09:14:38.109Z,88.05
2019-03-17T09:17:14.225Z,88.05
2019-03-17T09:19:39.253Z,87.78
2019-03-17T09:22:08.982Z,87.78
2019-03-17T09:24:38.767Z,90.43
2019-03-17T09:27:09.464Z,90.43
2019-03-17T09:29:39.609Z,88.43
2019-03-17T09:32:09.428Z,88.43
2019-03-17T09:34:40.279Z,87.74
2019-03-17T09:37:10.354Z,87.74
2019-03-17T09:39:44.256Z,87.87
2019-03-17T09:42:17.160Z,87.87
2019-03-17T09:44:47.098Z,88.09
2019-03-17T09:47:16.600Z,88.04
2019-03-17T09:49:46.291Z,88.04
2019-03-17T09:52:15.783Z,86.44
2019-03-17T09:54:45.810Z,86.44
2019-03-17T09:57:16.133Z,87.75
2019-03-17T09:59:45.720Z,87.68
2019-03-17T10:02:16.574Z,85.25
2019-03-17T10:04:46.692Z,85.25
2019-03-17T10:07:16.757Z,84.59
2019-03-17T10:09:46.733Z,85.67
2019-03-17T10:12:16.417Z,83.85
2019-03-17T10:14:46.214Z,84.70
2019-03-17T10:17:19.663Z,82.91
2019-03-17T10:19:51.389Z,82.91
2019-03-17T10:22:21.135Z,82.14
2019-03-17T10:24:51.238Z,82.14
2019-03-17T10:27:21.228Z,82.19
2019-03-17T10:29:51.157Z,79.89
2019-03-17T10:32:20.865Z,83.10
2019-03-17T10:34:50.784Z,83.10
2019-03-17T10:37:21.265Z,78.49
2019-03-17T10:39:52.403Z,79.96
2019-03-17T10:42:22.210Z,79.96
2019-03-17T10:44:52.136Z,79.89
2019-03-17T10:47:22.380Z,79.85
2019-03-17T10:49:52.341Z,79.74
2019-03-17T10:52:23.302Z,78.36
2019-03-17T10:54:52.928Z,76.85
2019-03-17T10:57:22.655Z,76.85
2019-03-17T10:59:57.133Z,77.42
2019-03-17T11:02:27.396Z,77.42
2019-03-17T11:04:57.472Z,78.32
2019-03-17T11:07:27.578Z,77.30
2019-03-17T11:09:57.571Z,77.30
2019-03-17T11:12:29.973Z,74.73
2019-03-17T11:14:59.748Z,74.73
2019-03-17T11:17:29.544Z,74.74
2019-03-17T11:19:59.605Z,74.51
2019-03-17T11:22:30.406Z,78.17
2019-03-17T11:25:00.538Z,73.90
2019-03-17T11:27:30.787Z,73.98
2019-03-17T11:30:00.501Z,71.91
2019-03-17T11:32:30.298Z,71.91
2019-03-17T11:35:00.343Z,73.00
2019-03-17T11:37:35.764Z,69.99
2019-03-17T11:40:06.427Z,70.33
2019-03-17T11:42:36.374Z,70.33
2019-03-17T11:45:07.299Z,72.26
2019-03-17T11:47:37.604Z,71.29
2019-03-17T11:50:10.074Z,71.29
2019-03-17T11:52:39.987Z,69.04
2019-03-17T11:55:10.197Z,69.04
2019-03-17T11:57:42.657Z,71.68
2019-03-17T12:00:14.732Z,71.68
2019-03-17T12:02:45.663Z,71.33
2019-03-17T12:05:16.180Z,72.98
2019-03-17T12:10:21.987Z,68.09
2019-03-17T12:12:52.107Z,68.09
2019-03-17T12:15:21.912Z,66.88
2019-03-17T12:17:51.947Z,66.88
2019-03-17T12:20:22.094Z,65.11
2019-03-17T12:22:52.745Z,61.73
2019-03-17T12:25:22.441Z,62.63
2019-03-17T12:27:53.079Z,59.86
2019-03-17T12:30:24.011Z,59.86
2019-03-17T12:32:54.514Z,59.15
2019-03-17T12:35:24.266Z,69.18
2019-03-17T12:37:54.671Z,69.18
2019-03-17T12:40:28.605Z,67.59
2019-03-17T12:42:58.744Z,68.95
2019-03-17T12:45:34.930Z,67.63
2019-03-17T12:48:06.282Z,69.64
2019-03-17T12:50:36.257Z,70.51
2019-03-17T12:53:07.870Z,70.51
2019-03-17T12:55:37.817Z,68.72
2019-03-17T12:58:09.920Z,68.72
2019-03-17T13:00:40.031Z,68.24
2019-03-17T13:03:10.253Z,70.27
2019-03-17T13:05:40.174Z,66.48
2019-03-17T13:08:13.517Z,66.48
2019-03-17T13:10:44.490Z,64.75
2019-03-17T13:13:15.100Z,64.64
2019-03-17T13:15:45.069Z,64.64
2019-03-17T13:18:14.913Z,65.63
2019-03-17T13:20:44.728Z,64.71
2019-03-17T13:23:20.827Z,64.60
2019-03-17T13:25:50.610Z,64.60
2019-03-17T13:28:24.514Z,64.34
2019-03-17T13:30:54.507Z,63.43
2019-03-17T13:33:24.955Z,63.58
2019-03-17T13:35:55.051Z,63.58
2019-03-17T13:38:24.862Z,62.44
2019-03-17T13:40:57.551Z,63.07
2019-03-17T13:43:27.852Z,60.97
2019-03-17T13:45:57.618Z,60.97
2019-03-17T13:48:27.614Z,61.02
2019-03-17T13:51:03.133Z,61.02
2019-03-17T13:53:34.784Z,61.16
2019-03-17T13:56:04.476Z,61.25
2019-03-17T13:58:34.376Z,59.70
2019-03-17T14:01:06.108Z,59.70
2019-03-17T14:03:39.718Z,57.17
2019-03-17T14:06:09.593Z,57.17
2019-03-17T14:08:39.745Z,58.96
2019-03-17T14:11:10.776Z,58.96
2019-03-17T14:13:40.734Z,60.22
2019-03-17T14:16:10.586Z,56.80
2019-03-17T14:18:40.324Z,56.80
2019-03-17T14:21:13.084Z,57.91
2019-03-17T14:23:44.431Z,57.90
2019-03-17T14:26:14.406Z,57.21
2019-03-17T14:28:44.437Z,58.57
2019-03-17T14:31:15.026Z,58.73
2019-03-17T14:33:44.753Z,56.85
2019-03-17T14:36:14.409Z,57.63
2019-03-17T14:38:47.560Z,58.44
2019-03-17T14:41:17.684Z,58.38
2019-03-17T14:43:47.720Z,57.66
2019-03-17T14:46:17.567Z,57.61
2019-03-17T14:48:52.138Z,57.61
2019-03-17T14:51:26.950Z,54.99
2019-03-17T14:53:57.379Z,54.87
2019-03-17T14:56:28.436Z,54.87
2019-03-17T14:58:59.208Z,57.96
2019-03-17T15:01:29.131Z,57.17
2019-03-17T15:03:58.913Z,56.47
2019-03-17T15:06:29.190Z,56.47
2019-03-17T15:08:58.943Z,56.81
2019-03-17T15:11:28.749Z,56.94
2019-03-17T15:13:58.414Z,56.21
2019-03-17T15:16:27.972Z,56.21
2019-03-17T15:18:58.154Z,56.58
2019-03-17T15:21:27.766Z,57.45
2019-03-17T15:26:31.266Z,57.82
2019-03-17T15:29:01.171Z,57.82
2019-03-17T15:31:31.986Z,58.22
2019-03-17T15:34:03.421Z,58.82
2019-03-17T15:36:33.612Z,59.27
2019-03-17T15:39:04.008Z,60.45
2019-03-17T15:41:34.343Z,61.76
2019-03-17T15:44:04.332Z,61.96
2019-03-17T15:46:36.916Z,61.96
2019-03-17T15:49:07.050Z,61.11
2019-03-17T15:51:37.372Z,61.18
2019-03-17T15:54:07.288Z,61.18
2019-03-17T15:56:37.260Z,64.12
2019-03-17T15:59:07.376Z,64.12
2019-03-17T16:01:37.266Z,65.33
2019-03-17T16:04:07.124Z,64.60
2019-03-17T16:06:36.909Z,64.60
2019-03-17T16:09:09.980Z,69.58
2019-03-17T16:11:42.251Z,69.58
2019-03-17T16:14:11.472Z,73.00
2019-03-17T16:16:41.536Z,73.43
2019-03-17T16:19:12.606Z,71.41
2019-03-17T16:21:42.452Z,72.60
2019-03-17T16:24:13.028Z,72.60
2019-03-17T16:26:43.295Z,72.30
2019-03-17T16:29:15.192Z,75.10
2019-03-17T16:31:45.207Z,76.54
2019-03-17T16:34:15.125Z,77.72
2019-03-17T16:36:46.404Z,77.72
2019-03-17T16:39:19.773Z,79.13
2019-03-17T16:41:52.299Z,77.94
2019-03-17T16:44:22.154Z,77.94
2019-03-17T16:46:52.425Z,79.03
2019-03-17T16:49:22.349Z,79.03
2019-03-17T16:51:52.685Z,78.40
2019-03-17T16:54:24.246Z,79.54
2019-03-17T16:56:54.126Z,79.58
2019-03-17T16:59:24.245Z,79.58
2019-03-17T17:01:56.302Z,81.07
2019-03-17T17:04:26.559Z,80.48
2019-03-17T17:06:56.713Z,81.31
2019-03-17T17:09:26.334Z,81.08
2019-03-17T17:11:57.446Z,81.08
2019-03-17T17:14:27.942Z,81.02
2019-03-17T17:16:59.523Z,80.69
2019-03-17T17:19:32.082Z,79.67
2019-03-17T17:22:02.175Z,79.92
2019-03-17T17:24:32.856Z,79.92
2019-03-17T17:27:02.773Z,79.43
2019-03-17T17:29:33.078Z,80.87
2019-03-17T17:32:04.145Z,80.51
2019-03-17T17:34:36.340Z,80.15
2019-03-17T17:37:06.421Z,80.15
2019-03-17T17:39:36.498Z,80.24
2019-03-17T17:42:09.845Z,79.97
2019-03-17T17:44:39.837Z,80.25
2019-03-17T17:47:09.650Z,79.36
2019-03-17T17:49:39.296Z,79.36
2019-03-17T17:52:11.618Z,79.24
2019-03-17T17:54:48.199Z,79.50
2019-03-17T17:57:18.251Z,79.23
2019-03-17T17:59:49.582Z,78.44
2019-03-17T18:02:19.181Z,78.44
2019-03-17T18:04:49.019Z,78.28
2019-03-17T18:07:19.168Z,78.46
2019-03-17T18:09:49.326Z,77.58
2019-03-17T18:12:21.124Z,78.85
2019-03-17T18:14:51.217Z,78.85
2019-03-17T18:17:25.951Z,76.68
2019-03-17T18:20:10.466Z,76.13
2019-03-17T18:22:40.219Z,76.85
2019-03-17T18:25:11.242Z,76.85
2019-03-17T18:27:41.234Z,77.07
2019-03-17T18:30:14.443Z,77.07
2019-03-17T18:32:44.590Z,77.49
2019-03-17T18:35:14.780Z,77.49
2019-03-17T18:37:44.707Z,76.37
2019-03-17T18:40:15.222Z,75.92
2019-03-17T18:42:45.365Z,77.62
2019-03-17T18:45:18.010Z,77.62
2019-03-17T18:47:48.027Z,76.81
2019-03-17T18:50:20.633Z,76.91
2019-03-17T18:52:51.171Z,76.91
2019-03-17T18:55:30.716Z,82.66
2019-03-17T18:58:05.090Z,82.66
2019-03-17T19:00:39.576Z,82.28
2019-03-17T19:03:07.892Z,82.02
2019-03-17T19:05:38.107Z,83.46
2019-03-17T19:08:16.048Z,83.46
2019-03-17T19:10:45.765Z,84.08
2019-03-17T19:13:15.715Z,83.06
2019-03-17T19:15:45.608Z,85.21
2019-03-17T19:18:15.456Z,84.83
2019-03-17T19:20:45.859Z,84.83
2019-03-17T19:23:15.962Z,84.54
2019-03-17T19:25:49.383Z,83.95
2019-03-17T19:28:19.554Z,84.19
2019-03-17T19:30:49.527Z,84.19
2019-03-17T19:33:22.548Z,85.37
2019-03-17T19:35:55.155Z,85.37
2019-03-17T19:38:27.546Z,84.28
2019-03-17T19:40:57.858Z,84.18
2019-03-17T19:43:28.467Z,84.32
2019-03-17T19:46:00.668Z,84.58
2019-03-17T19:48:30.246Z,84.92
2019-03-17T19:50:59.832Z,84.70
2019-03-17T19:53:30.259Z,84.70
2019-03-17T19:55:59.873Z,84.32
2019-03-17T19:58:29.703Z,84.87
2019-03-17T20:00:59.373Z,84.87
2019-03-17T20:03:32.708Z,84.96
2019-03-17T20:06:03.113Z,84.35
2019-03-17T20:08:32.789Z,85.57
2019-03-17T20:11:02.531Z,85.57
2019-03-17T20:13:36.330Z,85.98
2019-03-17T20:16:08.305Z,85.64
2019-03-17T20:18:41.346Z,85.64
2019-03-17T20:21:10.610Z,85.77
2019-03-17T20:23:40.453Z,84.96
2019-03-17T20:26:14.971Z,84.96
2019-03-17T20:28:45.054Z,85.22
2019-03-17T20:31:15.137Z,85.22
2019-03-17T20:33:45.696Z,84.58
2019-03-17T20:36:16.338Z,85.06
2019-03-17T20:38:46.607Z,85.43
2019-03-17T20:41:18.728Z,86.23
2019-03-17T20:43:48.719Z,86.34
2019-03-17T20:46:18.661Z,86.34
2019-03-17T20:48:48.705Z,86.37
2019-03-17T20:51:18.452Z,86.21
2019-03-17T20:53:49.666Z,86.38
2019-03-17T20:56:19.515Z,85.21
2019-03-17T20:58:50.018Z,85.49
2019-03-17T21:01:19.867Z,85.49
2019-03-17T21:03:50.766Z,85.08
2019-03-17T21:06:20.949Z,86.60
2019-03-17T21:08:51.053Z,86.60
2019-03-17T21:11:21.218Z,86.85
2019-03-17T21:13:51.117Z,86.85
2019-03-17T21:16:21.857Z,86.79
2019-03-17T21:18:52.203Z,86.79
2019-03-17T21:21:22.017Z,86.89
2019-03-17T21:23:51.828Z,86.74
2019-03-17T21:26:21.736Z,86.77
2019-03-17T21:28:51.825Z,87.04
2019-03-17T21:31:21.791Z,87.14
2019-03-17T21:33:52.098Z,86.99
2019-03-17T21:36:23.034Z,87.07
2019-03-17T21:38:53.084Z,87.01
2019-03-17T21:41:23.249Z,87.01
2019-03-17T21:43:59.410Z,87.59
2019-03-17T21:46:25.076Z,88.22
2019-03-17T21:48:54.730Z,87.67
2019-03-17T21:51:24.387Z,88.04
2019-03-17T21:53:54.460Z,88.21
2019-03-17T21:56:28.383Z,88.21
2019-03-17T21:58:58.736Z,88.22
2019-03-17T22:01:29.003Z,88.22
2019-03-17T22:03:59.079Z,87.84
2019-03-17T22:06:29.104Z,87.99
2019-03-17T22:08:59.854Z,87.69
2019-03-17T22:11:30.154Z,87.34
2019-03-17T22:14:11.466Z,87.15
2019-03-17T22:16:32.411Z,87.15
2019-03-17T22:19:02.492Z,86.76
2019-03-17T22:21:32.687Z,87.13
2019-03-17T22:24:03.622Z,88.08
2019-03-17T22:26:33.493Z,87.49
2019-03-17T22:29:03.669Z,87.20
2019-03-17T22:31:33.816Z,87.20
2019-03-17T22:34:03.720Z,88.01
2019-03-17T22:36:33.694Z,88.01
2019-03-17T22:39:04.474Z,88.38
2019-03-17T22:41:34.237Z,88.49
2019-03-17T22:44:04.109Z,88.29
2019-03-17T22:46:34.742Z,88.35
2019-03-17T22:49:04.603Z,88.01
2019-03-17T22:51:35.040Z,87.31
2019-03-17T22:54:04.630Z,87.31
2019-03-17T22:56:34.651Z,87.00
2019-03-17T23:01:34.780Z,86.05
2019-03-17T23:04:04.889Z,86.12
2019-03-17T23:06:35.073Z,86.50
2019-03-17T23:09:06.519Z,87.63
2019-03-17T23:11:36.605Z,87.16
2019-03-17T23:14:06.708Z,87.34
2019-03-17T23:16:36.601Z,87.34
2019-03-17T23:19:06.648Z,87.39
2019-03-17T23:21:36.679Z,87.61
2019-03-17T23:24:06.577Z,87.29
2019-03-17T23:26:36.356Z,87.69
2019-03-17T23:29:06.250Z,87.32
2019-03-17T23:31:36.203Z,87.39
2019-03-17T23:34:05.823Z,87.13
2019-03-17T23:36:35.719Z,87.13
2019-03-17T23:39:06.416Z,87.46
2019-03-17T23:41:36.185Z,87.49
2019-03-17T23:44:06.315Z,87.49
2019-03-17T23:46:36.389Z,87.17
2019-03-17T23:49:06.328Z,87.17
2019-03-17T23:51:36.210Z,87.57
2019-03-17T23:54:06.384Z,87.31
2019-03-17T23:56:36.111Z,87.04
2019-03-17T23:59:05.852Z,87.07
